createdAt,value
2022-10-11T00:05:00.996Z,6.97
2022-10-11T00:10:15.152Z,6.74
2022-10-11T00:15:26.911Z,6.89
2022-10-11T00:20:40.854Z,6.86
2022-10-11T00:26:01.066Z,6.97
2022-10-11T00:31:16.831Z,7.09
2022-10-11T00:36:28.491Z,7.12
2022-10-11T00:41:31.257Z,7.16
2022-10-11T00:46:34.081Z,7.19
2022-10-11T00:51:51.991Z,6.97
2022-10-11T00:57:12.992Z,6.82
2022-10-11T01:02:27.077Z,6.79
2022-10-11T01:07:40.098Z,6.86
2022-10-11T01:13:11.422Z,6.97
2022-10-11T01:19:01.060Z,7.02
2022-10-11T01:24:24.005Z,7.10
2022-10-11T01:30:17.519Z,7.18
2022-10-11T01:35:37.629Z,7.30
2022-10-11T01:41:19.967Z,7.52
2022-10-11T01:46:35.408Z,7.76
2022-10-11T01:51:53.441Z,7.89
2022-10-11T01:57:42.673Z,7.96
2022-10-11T02:03:19.768Z,8.14
2022-10-11T02:08:41.835Z,8.50
2022-10-11T02:14:12.768Z,8.69
2022-10-11T02:19:29.362Z,8.54
2022-10-11T02:24:45.991Z,8.69
2022-10-11T02:30:01.550Z,8.62
2022-10-11T02:35:17.578Z,8.56
2022-10-11T02:40:42.267Z,8.53
2022-10-11T02:46:03.502Z,8.72
2022-10-11T02:51:18.257Z,8.73
2022-10-11T02:56:31.810Z,8.85
2022-10-11T03:01:45.346Z,8.84
2022-10-11T03:06:58.686Z,9.09
2022-10-11T03:12:12.684Z,9.09
2022-10-11T03:17:42.832Z,9.08
2022-10-11T03:22:56.407Z,9.19
2022-10-11T03:28:08.369Z,9.29
2022-10-11T03:33:22.284Z,9.43
2022-10-11T03:38:37.316Z,9.40
2022-10-11T03:43:52.239Z,9.55
2022-10-11T03:49:07.374Z,9.76
2022-10-11T03:54:22.332Z,10.01
2022-10-11T03:59:37.386Z,10.03
2022-10-11T04:04:52.291Z,10.28
2022-10-11T04:10:06.244Z,10.51
2022-10-11T04:15:18.649Z,10.72
2022-10-11T04:20:32.605Z,10.80
2022-10-11T04:25:46.067Z,11.15
2022-10-11T04:30:58.809Z,11.30
2022-10-11T04:36:12.038Z,11.33
2022-10-11T04:41:25.632Z,11.30
2022-10-11T04:46:37.261Z,11.41
2022-10-11T04:51:51.073Z,11.47
2022-10-11T04:57:06.020Z,11.46
2022-10-11T05:02:21.339Z,11.59
2022-10-11T05:07:35.659Z,11.49
2022-10-11T05:12:49.745Z,11.65
2022-10-11T05:18:04.722Z,11.64
2022-10-11T05:23:19.725Z,11.66
2022-10-11T05:28:34.818Z,11.47
2022-10-11T05:33:47.831Z,11.29
2022-10-11T05:39:00.905Z,11.21
2022-10-11T05:44:14.260Z,11.48
2022-10-11T05:49:28.334Z,11.68
2022-10-11T05:54:43.308Z,11.71
2022-10-11T05:59:56.119Z,11.78
2022-10-11T06:05:10.514Z,11.44
2022-10-11T06:10:25.313Z,11.19
2022-10-11T06:15:41.185Z,10.79
2022-10-11T06:21:08.822Z,10.55
2022-10-11T06:26:36.091Z,10.18
2022-10-11T06:32:07.270Z,9.52
2022-10-11T06:37:38.349Z,9.13
2022-10-11T06:43:09.092Z,8.98
2022-10-11T06:48:21.528Z,8.81
2022-10-11T06:53:53.200Z,8.73
2022-10-11T06:59:05.938Z,8.58
2022-10-11T07:04:36.359Z,8.58
2022-10-11T07:10:16.642Z,8.54
2022-10-11T07:15:45.122Z,8.40
2022-10-11T07:21:16.905Z,8.40
2022-10-11T07:26:49.148Z,8.38
2022-10-11T07:32:18.247Z,8.38
2022-10-11T07:37:30.159Z,8.21
2022-10-11T07:42:41.889Z,7.94
2022-10-11T07:48:09.567Z,7.98
2022-10-11T07:53:54.776Z,8.11
2022-10-11T07:59:22.092Z,8.02
2022-10-11T08:04:49.846Z,7.96
2022-10-11T08:10:20.763Z,7.63
2022-10-11T08:15:51.746Z,7.75
2022-10-11T08:21:20.771Z,7.72
2022-10-11T08:27:04.798Z,7.70
2022-10-11T08:32:17.879Z,7.74
2022-10-11T08:37:29.558Z,7.70
2022-10-11T08:43:06.030Z,7.68
2022-10-11T08:48:46.613Z,7.61
2022-10-11T08:54:48.200Z,7.63
2022-10-11T09:00:20.053Z,7.64
2022-10-11T09:05:35.929Z,7.55
2022-10-11T09:11:14.063Z,7.55
2022-10-11T09:16:36.349Z,7.48
2022-10-11T09:21:56.633Z,7.33
2022-10-11T09:27:10.185Z,7.35
2022-10-11T09:32:21.216Z,7.29
2022-10-11T09:38:06.883Z,7.26
2022-10-11T09:43:09.851Z,7.12
2022-10-11T09:48:17.674Z,7.18
2022-10-11T09:53:22.072Z,7.19
2022-10-11T09:58:36.005Z,7.09
2022-10-11T10:03:43.907Z,7.12
2022-10-11T10:08:48.006Z,7.22
2022-10-11T10:13:54.019Z,7.10
2022-10-11T10:19:02.544Z,7.09
2022-10-11T10:24:30.730Z,7.28
2022-10-11T10:29:33.741Z,7.25
2022-10-11T10:34:39.459Z,7.19
2022-10-11T10:39:50.183Z,7.20
2022-10-11T10:44:58.837Z,7.16
2022-10-11T10:50:27.288Z,7.14
2022-10-11T10:55:46.740Z,7.20
2022-10-11T11:00:52.498Z,7.24
2022-10-11T11:06:03.492Z,7.21
2022-10-11T11:11:44.014Z,7.18
2022-10-11T11:17:06.302Z,7.28
2022-10-11T11:22:21.064Z,7.29
2022-10-11T11:28:06.769Z,7.23
2022-10-11T11:33:33.600Z,7.27
2022-10-11T11:38:51.040Z,7.12
2022-10-11T11:44:48.195Z,7.33
2022-10-11T11:50:04.672Z,7.28
2022-10-11T11:55:10.037Z,7.26
2022-10-11T12:00:16.696Z,7.29
2022-10-11T12:05:26.251Z,7.25
2022-10-11T12:10:55.357Z,7.23
2022-10-11T12:16:04.264Z,7.31
2022-10-11T12:21:17.993Z,7.30
2022-10-11T12:26:30.140Z,7.34
2022-10-11T12:31:35.953Z,7.34
2022-10-11T12:36:40.423Z,7.34
2022-10-11T12:41:53.892Z,7.33
2022-10-11T12:46:59.752Z,7.34
2022-10-11T12:52:05.210Z,7.20
2022-10-11T12:57:35.618Z,7.19
2022-10-11T13:02:43.117Z,7.18
2022-10-11T13:07:47.404Z,7.23
2022-10-11T13:12:50.986Z,7.12
2022-10-11T13:18:02.229Z,7.24
2022-10-11T13:23:04.937Z,7.17
2022-10-11T13:28:09.353Z,7.19
2022-10-11T13:33:24.747Z,7.21
2022-10-11T13:38:33.883Z,7.19
2022-10-11T13:43:37.161Z,7.18
2022-10-11T13:48:41.336Z,7.18
2022-10-11T13:54:02.439Z,7.25
2022-10-11T13:59:05.454Z,7.24
2022-10-11T14:04:15.823Z,7.22
2022-10-11T14:09:22.552Z,7.19
2022-10-11T14:14:41.165Z,7.22
2022-10-11T14:19:45.733Z,7.23
2022-10-11T14:24:49.099Z,7.24
2022-10-11T14:30:19.827Z,7.21
2022-10-11T14:35:17.750Z,7.21
2022-10-11T14:40:25.558Z,7.16
2022-10-11T14:45:28.324Z,7.17
2022-10-11T14:50:31.054Z,7.16
2022-10-11T14:55:36.300Z,7.19
2022-10-11T15:00:39.037Z,7.11
2022-10-11T15:05:41.731Z,6.86
2022-10-11T15:10:44.519Z,6.71
2022-10-11T15:15:47.318Z,6.72
2022-10-11T15:20:51.706Z,6.75
2022-10-11T15:25:54.621Z,6.79
2022-10-11T15:30:58.018Z,6.81
2022-10-11T15:36:00.686Z,6.74
2022-10-11T15:41:03.618Z,6.73
2022-10-11T15:46:07.107Z,6.69
2022-10-11T15:51:10.229Z,6.78
2022-10-11T15:56:19.328Z,6.78
2022-10-11T16:01:22.049Z,6.70
2022-10-11T16:06:24.764Z,6.71
2022-10-11T16:11:27.572Z,6.60
2022-10-11T16:16:30.262Z,6.49
2022-10-11T16:21:33.079Z,6.37
2022-10-11T16:26:35.822Z,6.27
2022-10-11T16:31:38.541Z,6.12
2022-10-11T16:36:41.294Z,6.08
2022-10-11T16:41:44.088Z,6.11
2022-10-11T16:46:50.486Z,6.09
2022-10-11T16:51:55.672Z,6.01
2022-10-11T16:56:59.635Z,6.07
2022-10-11T17:02:02.389Z,6.13
2022-10-11T17:07:12.521Z,6.24
2022-10-11T17:12:17.387Z,6.23
2022-10-11T17:17:20.868Z,6.33
2022-10-11T17:22:23.618Z,6.29
2022-10-11T17:27:26.543Z,6.37
2022-10-11T17:32:29.231Z,6.38
2022-10-11T17:37:31.992Z,6.32
2022-10-11T17:42:34.902Z,6.27
2022-10-11T17:47:37.818Z,6.28
2022-10-11T17:52:40.542Z,6.25
2022-10-11T17:57:43.306Z,6.16
2022-10-11T18:02:46.005Z,6.19
2022-10-11T18:07:53.139Z,6.16
2022-10-11T18:12:55.894Z,6.12
2022-10-11T18:17:59.917Z,6.07
2022-10-11T18:23:02.843Z,5.93
2022-10-11T18:28:05.646Z,6.04
2022-10-11T18:33:08.311Z,5.83
2022-10-11T18:38:10.956Z,5.61
2022-10-11T18:43:13.878Z,5.36
2022-10-11T18:48:16.655Z,5.40
2022-10-11T18:53:19.318Z,5.49
2022-10-11T18:58:22.012Z,5.49
2022-10-11T19:03:24.759Z,5.27
2022-10-11T19:08:28.193Z,4.91
2022-10-11T19:13:30.972Z,4.61
2022-10-11T19:18:33.782Z,4.50
2022-10-11T19:23:41.999Z,4.39
2022-10-11T19:28:45.638Z,4.30
2022-10-11T19:33:49.876Z,4.34
2022-10-11T19:38:57.003Z,4.35
2022-10-11T19:43:59.980Z,4.51
2022-10-11T19:49:03.153Z,4.63
2022-10-11T19:54:08.383Z,4.69
2022-10-11T19:59:12.405Z,4.70
2022-10-11T20:04:33.526Z,4.76
2022-10-11T20:09:37.985Z,4.80
2022-10-11T20:14:40.685Z,4.77
2022-10-11T20:19:43.410Z,4.89
2022-10-11T20:24:46.113Z,4.91
2022-10-11T20:29:49.300Z,4.93
2022-10-11T20:34:52.020Z,5.08
2022-10-11T20:39:54.949Z,5.09
2022-10-11T20:44:57.647Z,5.08
2022-10-11T20:50:00.384Z,5.02
2022-10-11T20:55:04.556Z,5.00
2022-10-11T21:00:08.083Z,4.87
2022-10-11T21:05:11.686Z,4.76
2022-10-11T21:10:14.504Z,4.69
2022-10-11T21:15:17.187Z,4.63
2022-10-11T21:20:19.906Z,4.60
2022-10-11T21:25:23.481Z,4.56
2022-10-11T21:30:26.265Z,4.49
2022-10-11T21:35:30.109Z,4.58
2022-10-11T21:40:32.756Z,4.53
2022-10-11T21:45:38.988Z,4.44
2022-10-11T21:50:42.197Z,4.46
2022-10-11T21:55:44.849Z,4.46
2022-10-11T22:00:47.529Z,4.38
2022-10-11T22:05:50.355Z,4.39
2022-10-11T22:10:57.763Z,4.22
2022-10-11T22:16:04.912Z,4.29
2022-10-11T22:21:14.836Z,4.35
2022-10-11T22:26:19.660Z,4.40
2022-10-11T22:31:23.457Z,4.44
2022-10-11T22:36:27.482Z,4.45
2022-10-11T22:41:30.366Z,4.35
2022-10-11T22:46:33.403Z,4.45
2022-10-11T22:51:36.093Z,4.46
2022-10-11T22:56:38.772Z,4.39
2022-10-11T23:01:41.551Z,4.32
2022-10-11T23:06:44.616Z,4.30
2022-10-11T23:11:47.427Z,4.19
2022-10-11T23:16:53.524Z,4.15
2022-10-11T23:21:56.835Z,4.11
2022-10-11T23:26:59.526Z,3.90
2022-10-11T23:32:02.379Z,3.96
2022-10-11T23:37:05.612Z,3.96
2022-10-11T23:42:08.363Z,4.00
2022-10-11T23:47:11.049Z,3.96
2022-10-11T23:52:13.640Z,3.87
2022-10-11T23:57:16.289Z,3.86
